Time;durP1;ratioP1;P1;durP2;ratioP2;P2;SDS_P1;SDS_P2;PMS_P1;PMS_P2;Temp;Humidity;BMP_temperature;BMP_pressure;BME280_temperature;BME280_humidity;BME280_pressure;Samples;Min_cycle;Max_cycle;Signal;HPM_P1;HPM_P2
2023/01/19 00:00:46;;;;;;;6.18;0.80;;;2.70;99.90;;;;;;5056630;28;20545;-78
2023/01/19 00:03:34;;;;;;;3.75;1.35;;;2.70;99.90;;;;;;5057334;28;20140;-79
2023/01/19 00:06:20;;;;;;;10.88;2.20;;;2.70;99.90;;;;;;5057355;28;20059;-79
2023/01/19 00:09:06;;;;;;;7.60;0.70;;;2.70;99.90;;;;;;5059730;28;20064;-82
2023/01/19 00:11:53;;;;;;;5.72;0.82;;;2.60;99.90;;;;;;5060394;28;20049;-79
2023/01/19 00:14:39;;;;;;;4.90;0.85;;;2.60;99.90;;;;;;5057561;28;20056;-80
2023/01/19 00:17:25;;;;;;;6.50;1.05;;;2.60;99.90;;;;;;5057515;28;20055;-79
2023/01/19 00:20:11;;;;;;;5.43;1.83;;;2.70;99.90;;;;;;5038431;28;20095;-80
2023/01/19 00:22:58;;;;;;;2.80;0.55;;;2.60;99.90;;;;;;5056898;28;20045;-79
2023/01/19 00:25:44;;;;;;;5.13;0.65;;;2.60;99.90;;;;;;5056104;28;20122;-78
2023/01/19 00:28:30;;;;;;;4.97;0.85;;;2.70;99.90;;;;;;5038240;28;20642;-79
2023/01/19 00:31:19;;;;;;;6.28;0.70;;;2.70;99.90;;;;;;5059269;28;20057;-78
2023/01/19 00:34:06;;;;;;;6.38;1.17;;;2.80;99.90;;;;;;5059626;28;20041;-79
2023/01/19 00:36:52;;;;;;;7.38;0.80;;;2.80;99.90;;;;;;5057278;28;20053;-78
2023/01/19 00:39:38;;;;;;;6.05;0.98;;;2.80;99.90;;;;;;5039664;28;20048;-79
2023/01/19 00:42:39;;;;;;;6.13;1.20;;;2.90;99.90;;;;;;5057082;28;20041;-78
2023/01/19 00:45:25;;;;;;;8.98;0.90;;;3.00;99.90;;;;;;5039375;28;20132;-79
2023/01/19 00:48:11;;;;;;;6.22;0.90;;;3.00;99.90;;;;;;5057221;28;20057;-78
2023/01/19 00:50:58;;;;;;;8.73;1.50;;;3.10;99.90;;;;;;5058291;28;20045;-82
2023/01/19 00:53:44;;;;;;;5.93;1.45;;;3.10;99.90;;;;;;5059443;28;20053;-79
2023/01/19 00:56:31;;;;;;;10.52;0.82;;;3.10;99.90;;;;;;5056872;28;20126;-79
2023/01/19 00:59:17;;;;;;;3.42;0.70;;;3.10;99.90;;;;;;5053480;28;20122;-79
2023/01/19 01:02:03;;;;;;;5.95;0.70;;;3.10;99.90;;;;;;5053688;28;20052;-79
2023/01/19 01:04:53;;;;;;;7.43;1.70;;;3.10;99.90;;;;;;5053179;28;20143;-81
2023/01/19 01:07:40;;;;;;;10.52;2.35;;;3.10;99.90;;;;;;5053675;28;20080;-80
2023/01/19 01:10:27;;;;;;;10.23;0.95;;;3.10;99.90;;;;;;5053185;28;20173;-82
2023/01/19 01:13:14;;;;;;;8.13;2.17;;;3.10;99.90;;;;;;5058212;28;20081;-79
2023/01/19 01:16:00;;;;;;;7.15;1.02;;;3.10;99.90;;;;;;5052387;28;20060;-80
2023/01/19 01:18:46;;;;;;;4.55;0.82;;;3.10;99.90;;;;;;5052556;28;20144;-82
2023/01/19 01:21:33;;;;;;;9.20;1.20;;;3.10;99.90;;;;;;5035342;28;20451;-78
2023/01/19 01:24:19;;;;;;;8.02;1.30;;;3.10;99.90;;;;;;5053202;28;20519;-79
2023/01/19 01:27:06;;;;;;;12.07;1.60;;;3.10;99.90;;;;;;5034627;28;20056;-79
2023/01/19 01:29:52;;;;;;;6.45;1.48;;;3.10;99.90;;;;;;5053712;28;20167;-80
2023/01/19 01:32:38;;;;;;;5.22;1.10;;;3.10;99.90;;;;;;5058238;28;20117;-79
2023/01/19 01:35:24;;;;;;;15.40;2.00;;;3.10;99.90;;;;;;5055029;28;20045;-80
2023/01/19 01:38:10;;;;;;;8.85;1.10;;;3.10;99.90;;;;;;5052830;28;20052;-80
2023/01/19 01:40:57;;;;;;;9.52;1.77;;;3.10;99.90;;;;;;5034187;28;20491;-78
2023/01/19 01:43:46;;;;;;;6.25;1.23;;;3.10;99.90;;;;;;5052863;28;20421;-82
2023/01/19 01:46:32;;;;;;;10.88;1.27;;;3.10;99.90;;;;;;5053061;28;20466;-81
2023/01/19 01:49:18;;;;;;;9.95;1.38;;;3.00;99.90;;;;;;5039547;28;20087;-80
2023/01/19 01:52:04;;;;;;;9.02;1.95;;;3.00;99.90;;;;;;5034380;28;20053;-78
2023/01/19 01:54:51;;;;;;;6.30;0.90;;;3.00;99.90;;;;;;5057052;28;20059;-79
2023/01/19 01:57:42;;;;;;;10.43;2.65;;;3.10;99.90;;;;;;5053457;28;20056;-78
2023/01/19 02:02:49;;;;;;;15.73;3.08;;;3.10;99.90;;;;;;5053405;28;20484;-79
2023/01/19 02:03:35;;;;;;;9.40;1.58;;;3.10;99.90;;;;;;5052075;28;20040;-79
2023/01/19 02:06:22;;;;;;;11.25;2.35;;;3.10;99.90;;;;;;5034300;28;20497;-79
2023/01/19 02:15:19;;;;;;;12.48;1.83;;;3.10;99.90;;;;;;5051689;28;19979;-80
2023/01/19 02:18:05;;;;;;;8.25;1.20;;;3.10;99.90;;;;;;5039231;28;20064;-82
2023/01/19 02:21:10;;;;;;;6.28;0.98;;;3.10;99.90;;;;;;5058070;28;20053;-77
2023/01/19 02:23:59;;;;;;;11.77;1.38;;;3.10;99.90;;;;;;5050965;28;20060;-78
2023/01/19 02:26:47;;;;;;;8.20;1.10;;;3.10;99.90;;;;;;5037375;28;20077;-78
2023/01/19 02:29:33;;;;;;;8.25;0.82;;;3.10;99.90;;;;;;5052387;28;20080;-79
2023/01/19 02:32:19;;;;;;;11.27;1.38;;;3.10;99.90;;;;;;5052256;28;20049;-82
2023/01/19 02:35:06;;;;;;;8.48;2.10;;;3.00;99.90;;;;;;5033188;28;20064;-77
2023/01/19 02:37:53;;;;;;;5.43;0.95;;;3.10;99.90;;;;;;5032976;28;20059;-78
2023/01/19 02:40:41;;;;;;;8.50;1.25;;;3.10;99.90;;;;;;5052267;28;20103;-79
2023/01/19 02:43:29;;;;;;;14.35;1.20;;;3.10;99.90;;;;;;5055587;28;20053;-81
2023/01/19 02:46:15;;;;;;;6.03;1.00;;;3.10;99.90;;;;;;5051095;28;20114;-79
2023/01/19 02:49:02;;;;;;;10.35;0.90;;;3.10;99.90;;;;;;5036969;28;20087;-79
2023/01/19 02:51:48;;;;;;;7.80;1.00;;;3.20;99.90;;;;;;5051236;28;20521;-78
2023/01/19 02:55:17;;;;;;;6.20;1.15;;;3.20;99.90;;;;;;5050932;28;20056;-79
2023/01/19 02:58:13;;;;;;;8.80;1.30;;;3.20;99.90;;;;;;4989097;28;20529;-79
2023/01/19 03:01:11;;;;;;;11.77;2.10;;;3.20;99.90;;;;;;4989045;28;20053;-78
2023/01/19 03:04:05;;;;;;;9.90;1.10;;;3.20;99.90;;;;;;5051128;28;20049;-79
2023/01/19 03:07:01;;;;;;;8.63;1.73;;;3.20;99.90;;;;;;5053832;28;20568;-78
2023/01/19 03:10:11;;;;;;;10.48;2.00;;;3.20;99.90;;;;;;5052137;28;20053;-78
2023/01/19 03:13:09;;;;;;;7.38;1.10;;;3.20;99.90;;;;;;5051383;28;20056;-78
2023/01/19 03:16:06;;;;;;;14.10;1.40;;;3.30;99.90;;;;;;5036583;28;20520;-79
2023/01/19 03:19:00;;;;;;;15.43;2.80;;;3.30;99.90;;;;;;5032304;28;20072;-79
2023/01/19 03:21:51;;;;;;;8.25;1.58;;;3.30;99.90;;;;;;5049688;28;20140;-78
2023/01/19 03:24:42;;;;;;;5.72;1.20;;;3.30;99.90;;;;;;5050205;28;20049;-82
2023/01/19 03:27:40;;;;;;;10.10;0.93;;;3.30;99.90;;;;;;5049995;28;20053;-78
2023/01/19 03:30:34;;;;;;;5.22;1.17;;;3.30;99.90;;;;;;5053732;28;20202;-81
2023/01/19 03:33:26;;;;;;;10.70;2.10;;;3.30;99.90;;;;;;5051028;28;20048;-79
2023/01/19 03:36:35;;;;;;;9.00;0.93;;;3.30;99.90;;;;;;5050654;28;20068;-80
2023/01/19 03:39:25;;;;;;;10.45;1.35;;;3.30;99.90;;;;;;5050872;28;20049;-78
2023/01/19 03:42:15;;;;;;;13.85;2.30;;;3.30;99.90;;;;;;5036585;28;20056;-78
2023/01/19 03:45:01;;;;;;;5.32;1.02;;;3.30;99.90;;;;;;5036822;28;20206;-80
2023/01/19 03:47:47;;;;;;;11.63;1.27;;;3.30;99.90;;;;;;5050854;28;20143;-77
2023/01/19 03:50:33;;;;;;;4.80;0.82;;;3.30;99.90;;;;;;5051652;28;20497;-79
2023/01/19 03:53:21;;;;;;;9.45;1.00;;;3.20;99.90;;;;;;5054150;28;20052;-78
2023/01/19 03:56:22;;;;;;;9.52;2.67;;;3.10;99.90;;;;;;5051343;28;20055;-79
2023/01/19 03:59:09;;;;;;;6.57;1.42;;;3.10;99.90;;;;;;5036755;28;20182;-78
2023/01/19 04:01:55;;;;;;;8.38;1.73;;;3.00;99.90;;;;;;5032987;28;20044;-78
2023/01/19 04:04:41;;;;;;;6.88;1.00;;;2.90;99.90;;;;;;5050660;28;20088;-79
2023/01/19 04:07:27;;;;;;;5.63;0.90;;;2.90;99.90;;;;;;5050111;28;20132;-79
2023/01/19 04:10:14;;;;;;;10.00;1.10;;;2.90;99.90;;;;;;5050904;28;20051;-81
2023/01/19 04:13:01;;;;;;;6.07;1.25;;;2.80;99.90;;;;;;5056291;28;20064;-79
2023/01/19 04:15:48;;;;;;;8.65;2.25;;;2.80;99.90;;;;;;5036812;28;20136;-77
2023/01/19 04:18:34;;;;;;;9.20;2.05;;;2.80;99.90;;;;;;5049194;28;20497;-78
2023/01/19 04:21:20;;;;;;;8.02;0.90;;;2.80;99.90;;;;;;5050329;28;20485;-80
2023/01/19 04:24:08;;;;;;;7.55;1.77;;;2.80;99.90;;;;;;5032428;28;20060;-78
2023/01/19 04:26:54;;;;;;;9.98;0.98;;;2.80;99.90;;;;;;5049549;28;20907;-78
2023/01/19 04:29:40;;;;;;;11.05;1.05;;;2.80;99.90;;;;;;5048967;28;20126;-81
2023/01/19 04:32:26;;;;;;;6.30;1.40;;;2.80;99.90;;;;;;5055211;28;20472;-77
2023/01/19 04:35:12;;;;;;;11.95;1.10;;;2.80;99.90;;;;;;5053858;28;20053;-80
2023/01/19 04:37:59;;;;;;;7.22;0.85;;;2.90;99.90;;;;;;5035597;28;20049;-80
2023/01/19 04:40:45;;;;;;;8.00;0.88;;;3.00;99.90;;;;;;5054619;28;20108;-78
2023/01/19 04:43:32;;;;;;;5.65;0.80;;;3.10;99.90;;;;;;5038579;28;20143;-77
2023/01/19 04:46:18;;;;;;;11.32;1.00;;;3.20;99.90;;;;;;5054627;28;20459;-78
2023/01/19 04:49:04;;;;;;;14.50;1.67;;;3.30;99.90;;;;;;5040342;28;20052;-77
2023/01/19 04:51:52;;;;;;;10.65;1.58;;;3.50;99.90;;;;;;5054925;28;20045;-77
2023/01/19 04:54:38;;;;;;;11.07;1.73;;;3.60;99.90;;;;;;5036013;28;20398;-78
2023/01/19 04:57:24;;;;;;;9.98;1.80;;;3.70;99.90;;;;;;5039193;28;20041;-80
2023/01/19 05:00:11;;;;;;;12.48;1.80;;;3.80;99.90;;;;;;5039091;28;20106;-78
2023/01/19 05:02:57;;;;;;;18.48;2.97;;;3.90;99.90;;;;;;5036381;28;20084;-79
2023/01/19 05:05:44;;;;;;;23.95;3.78;;;3.90;99.90;;;;;;5052900;28;20114;-79
2023/01/19 05:08:30;;;;;;;9.70;1.70;;;4.00;99.90;;;;;;5035358;28;20190;-82
2023/01/19 05:11:16;;;;;;;13.23;1.88;;;4.00;99.90;;;;;;5056368;28;20056;-78
2023/01/19 05:14:02;;;;;;;8.05;1.23;;;4.20;99.90;;;;;;5054595;28;20052;-76
2023/01/19 05:16:48;;;;;;;9.75;1.42;;;4.10;99.90;;;;;;5035509;28;20153;-76
2023/01/19 05:19:34;;;;;;;10.88;2.25;;;4.00;99.90;;;;;;5053622;28;20447;-80
2023/01/19 05:22:20;;;;;;;16.15;1.83;;;3.90;99.90;;;;;;5053579;28;20141;-79
2023/01/19 05:25:07;;;;;;;6.53;1.17;;;3.80;99.90;;;;;;5052905;28;20131;-78
2023/01/19 05:27:53;;;;;;;8.95;0.80;;;3.80;99.90;;;;;;5033777;28;20140;-81
2023/01/19 05:30:39;;;;;;;7.10;0.98;;;3.60;99.90;;;;;;5051451;28;20512;-78
2023/01/19 05:33:26;;;;;;;7.90;1.65;;;3.50;99.90;;;;;;5052763;28;20817;-78
2023/01/19 05:36:12;;;;;;;6.55;0.98;;;3.50;99.90;;;;;;5043665;28;20045;-79
2023/01/19 05:38:58;;;;;;;18.00;3.60;;;3.40;99.90;;;;;;5035854;28;20056;-78
2023/01/19 05:41:44;;;;;;;9.30;1.23;;;3.60;99.90;;;;;;5053485;28;20087;-81
2023/01/19 05:44:30;;;;;;;11.07;1.55;;;3.80;99.90;;;;;;5051821;28;20052;-79
2023/01/19 05:47:16;;;;;;;6.38;1.23;;;4.00;99.90;;;;;;5053023;28;20464;-82
2023/01/19 05:50:03;;;;;;;9.68;1.48;;;4.10;99.90;;;;;;5034697;28;20093;-78
2023/01/19 05:52:52;;;;;;;13.70;1.65;;;4.20;99.90;;;;;;5052216;28;20135;-79
2023/01/19 05:55:38;;;;;;;11.93;2.28;;;4.30;99.90;;;;;;5053295;28;20088;-79
2023/01/19 05:58:24;;;;;;;11.05;2.22;;;4.50;99.90;;;;;;5038311;28;20155;-81
2023/01/19 06:01:10;;;;;;;11.57;2.70;;;4.50;99.90;;;;;;5038868;28;20049;-77
2023/01/19 06:03:56;;;;;;;16.70;2.10;;;4.40;99.90;;;;;;5060400;28;20068;-78
2023/01/19 06:06:42;;;;;;;17.08;2.22;;;4.40;99.90;;;;;;5052755;28;20045;-81
2023/01/19 06:09:28;;;;;;;13.38;2.90;;;4.40;99.90;;;;;;5053149;28;20129;-78
2023/01/19 06:12:14;;;;;;;14.20;1.67;;;4.40;99.90;;;;;;5052527;28;20088;-78
2023/01/19 06:15:00;;;;;;;17.13;3.40;;;4.30;99.90;;;;;;5052417;28;20416;-80
2023/01/19 06:17:46;;;;;;;12.70;2.33;;;4.30;99.90;;;;;;5036890;28;20102;-80
2023/01/19 06:20:32;;;;;;;21.20;2.40;;;4.30;99.90;;;;;;5052347;28;20408;-77
2023/01/19 06:23:19;;;;;;;13.35;2.85;;;4.40;99.90;;;;;;5050872;28;20049;-78
2023/01/19 06:26:05;;;;;;;13.73;2.65;;;4.40;99.90;;;;;;5053452;28;20088;-77
2023/01/19 06:28:52;;;;;;;13.88;2.97;;;4.50;99.90;;;;;;5050354;28;20053;-79
2023/01/19 06:31:38;;;;;;;10.85;2.88;;;4.50;99.90;;;;;;5052450;28;20508;-78
2023/01/19 06:34:27;;;;;;;19.88;2.53;;;4.50;99.90;;;;;;5052634;28;20136;-80
2023/01/19 06:37:15;;;;;;;31.00;2.83;;;4.50;99.90;;;;;;5053273;28;20401;-77
2023/01/19 06:40:01;;;;;;;21.75;2.85;;;4.50;99.90;;;;;;5051039;28;20154;-76
2023/01/19 06:42:48;;;;;;;12.80;1.80;;;4.40;99.90;;;;;;5051490;28;20045;-82
2023/01/19 06:45:34;;;;;;;17.25;2.75;;;4.50;99.90;;;;;;5055086;28;20051;-80
2023/01/19 06:48:20;;;;;;;10.98;2.20;;;4.50;99.90;;;;;;5020160;28;20052;-80
2023/01/19 06:51:07;;;;;;;12.23;2.95;;;4.50;99.90;;;;;;5051109;28;20053;-78
2023/01/19 06:53:53;;;;;;;20.25;5.25;;;4.60;99.90;;;;;;5033282;28;20393;-80
2023/01/19 06:56:39;;;;;;;18.83;3.05;;;4.60;99.90;;;;;;5050982;28;20055;-79
2023/01/19 06:59:25;;;;;;;16.60;2.60;;;4.70;99.90;;;;;;5050608;28;20103;-80
2023/01/19 07:02:12;;;;;;;24.38;2.90;;;4.70;99.90;;;;;;5051079;28;20059;-79
2023/01/19 07:04:58;;;;;;;17.92;2.47;;;4.70;99.90;;;;;;5051138;28;20049;-77
2023/01/19 07:07:50;;;;;;;19.35;3.42;;;4.70;99.90;;;;;;5038952;28;20053;-78
2023/01/19 07:10:36;;;;;;;11.75;2.17;;;4.70;99.90;;;;;;5033977;28;20051;-79
2023/01/19 07:13:22;;;;;;;14.68;2.42;;;4.70;99.90;;;;;;5032243;28;20045;-80
2023/01/19 07:16:11;;;;;;;18.63;2.53;;;4.80;99.90;;;;;;5051278;28;20045;-79
2023/01/19 07:18:59;;;;;;;13.93;2.28;;;4.80;99.90;;;;;;5050812;28;20468;-79
2023/01/19 07:21:46;;;;;;;10.70;2.70;;;4.90;99.90;;;;;;5032152;28;20060;-78
2023/01/19 07:24:33;;;;;;;14.88;2.35;;;4.80;99.90;;;;;;5051164;28;20061;-79
2023/01/19 07:27:19;;;;;;;22.88;3.55;;;4.80;99.90;;;;;;5038091;28;20041;-77
2023/01/19 07:30:07;;;;;;;17.45;3.60;;;4.80;99.90;;;;;;5053587;28;20525;-79
2023/01/19 07:32:56;;;;;;;16.00;3.00;;;4.80;99.90;;;;;;5033236;28;20075;-79
2023/01/19 07:35:47;;;;;;;18.60;3.80;;;4.80;99.90;;;;;;5032707;28;20492;-78
2023/01/19 07:38:33;;;;;;;11.30;2.53;;;4.80;99.90;;;;;;5032852;28;20060;-81
2023/01/19 07:41:19;;;;;;;14.15;3.00;;;4.70;99.90;;;;;;5051173;28;20111;-80
2023/01/19 07:44:06;;;;;;;17.98;4.22;;;4.80;99.90;;;;;;5050973;28;20055;-80
2023/01/19 07:46:52;;;;;;;16.83;3.20;;;4.70;99.90;;;;;;5050185;28;20057;-78
2023/01/19 07:49:38;;;;;;;16.85;2.92;;;4.70;99.90;;;;;;5051625;28;20134;-77
2023/01/19 07:52:25;;;;;;;10.15;2.45;;;4.60;99.90;;;;;;5056274;28;20045;-83
2023/01/19 07:55:11;;;;;;;13.73;1.95;;;4.60;99.90;;;;;;5051256;28;20072;-81
2023/01/19 07:57:57;;;;;;;16.10;2.42;;;4.50;99.90;;;;;;5032887;28;20102;-80
2023/01/19 08:00:43;;;;;;;12.23;1.58;;;4.50;99.90;;;;;;5050330;28;20052;-81
2023/01/19 08:03:29;;;;;;;14.38;2.10;;;4.50;99.90;;;;;;5050409;28;20149;-79
2023/01/19 08:06:25;;;;;;;12.13;1.70;;;4.50;99.90;;;;;;5050136;28;20049;-78
2023/01/19 08:09:12;;;;;;;13.40;2.03;;;4.60;99.90;;;;;;5052837;28;20057;-80
2023/01/19 08:11:58;;;;;;;8.10;2.10;;;4.50;99.90;;;;;;5035655;28;20134;-79
2023/01/19 08:14:44;;;;;;;13.63;2.30;;;4.60;99.90;;;;;;5054209;28;20469;-79
2023/01/19 08:17:30;;;;;;;13.45;1.60;;;4.60;99.90;;;;;;5035780;28;20425;-80
2023/01/19 08:20:16;;;;;;;10.70;2.28;;;4.60;99.90;;;;;;5054653;28;20190;-79
2023/01/19 08:23:04;;;;;;;12.70;1.65;;;4.70;99.90;;;;;;5054683;28;20060;-78
2023/01/19 08:25:51;;;;;;;15.82;2.75;;;4.70;99.90;;;;;;5039992;28;20118;-79
2023/01/19 08:28:37;;;;;;;19.25;2.00;;;4.70;99.90;;;;;;5054260;28;20056;-78
2023/01/19 08:31:23;;;;;;;14.77;2.53;;;4.70;99.90;;;;;;5036559;28;20052;-82
2023/01/19 08:34:09;;;;;;;18.85;3.92;;;4.80;99.90;;;;;;5054834;28;20059;-80
2023/01/19 08:36:57;;;;;;;16.02;2.20;;;4.70;99.90;;;;;;5056794;28;20127;-81
2023/01/19 08:39:43;;;;;;;16.52;2.83;;;4.80;99.90;;;;;;5040465;28;20136;-79
2023/01/19 08:42:29;;;;;;;17.42;2.30;;;4.70;99.90;;;;;;5054646;28;20045;-78
2023/01/19 08:45:15;;;;;;;13.88;2.15;;;4.70;99.90;;;;;;5054390;28;20048;-80
2023/01/19 08:48:03;;;;;;;14.32;3.03;;;4.70;99.90;;;;;;5054672;28;20562;-79
2023/01/19 08:50:50;;;;;;;10.95;1.77;;;4.70;99.90;;;;;;5059435;28;20053;-81
2023/01/19 08:53:37;;;;;;;12.35;1.60;;;4.70;99.90;;;;;;5058852;28;20106;-78
2023/01/19 08:56:23;;;;;;;16.95;2.53;;;4.70;99.90;;;;;;5057725;28;20049;-79
2023/01/19 08:59:09;;;;;;;10.15;1.63;;;4.70;99.90;;;;;;5059033;28;20102;-79
2023/01/19 09:01:56;;;;;;;14.40;2.53;;;4.60;99.90;;;;;;5059188;28;20052;-77
2023/01/19 09:04:42;;;;;;;19.45;3.30;;;4.60;99.90;;;;;;5062759;28;20119;-82
2023/01/19 09:07:28;;;;;;;13.82;1.92;;;4.60;99.90;;;;;;5060290;28;20424;-81
2023/01/19 09:10:15;;;;;;;9.77;1.67;;;4.70;99.90;;;;;;5055176;28;20045;-81
2023/01/19 09:13:06;;;;;;;15.60;2.20;;;4.70;99.90;;;;;;5054618;28;20524;-79
2023/01/19 09:15:53;;;;;;;24.85;3.08;;;4.80;99.90;;;;;;5056201;28;20094;-80
2023/01/19 09:18:39;;;;;;;25.95;3.25;;;4.90;99.90;;;;;;5057690;28;20485;-80
2023/01/19 09:21:25;;;;;;;17.58;2.35;;;5.00;99.90;;;;;;5022116;28;20045;-80
2023/01/19 09:24:12;;;;;;;13.27;2.63;;;5.10;99.90;;;;;;5036469;28;20061;-79
2023/01/19 09:26:58;;;;;;;12.15;1.45;;;5.20;99.90;;;;;;5052873;28;20041;-80
2023/01/19 09:29:51;;;;;;;14.25;2.22;;;5.30;99.90;;;;;;5038689;28;20055;-80
2023/01/19 09:32:37;;;;;;;8.52;1.70;;;5.40;99.90;;;;;;5039179;28;20087;-81
2023/01/19 09:35:23;;;;;;;12.07;1.98;;;5.40;99.90;;;;;;5036575;28;20477;-80
2023/01/19 09:38:10;;;;;;;15.88;2.50;;;5.50;99.90;;;;;;5021002;28;20056;-81
2023/01/19 09:40:58;;;;;;;11.27;2.38;;;5.40;99.90;;;;;;5038757;28;20401;-82
2023/01/19 09:43:56;;;;;;;18.73;1.63;;;5.50;99.90;;;;;;5053311;28;20052;-81
2023/01/19 09:46:42;;;;;;;11.75;2.08;;;5.50;99.90;;;;;;5053492;28;20049;-80
2023/01/19 09:49:40;;;;;;;17.35;2.65;;;5.40;99.90;;;;;;5052056;28;20501;-81
2023/01/19 09:52:26;;;;;;;14.63;1.80;;;5.50;99.90;;;;;;5053452;28;20048;-80
2023/01/19 09:55:24;;;;;;;8.57;2.70;;;5.60;99.90;;;;;;5053150;28;20493;-79
2023/01/19 09:58:17;;;;;;;14.82;2.90;;;5.60;99.90;;;;;;5053409;28;20045;-82
2023/01/19 10:01:17;;;;;;;15.95;3.22;;;5.60;99.90;;;;;;5053721;28;20045;-79
2023/01/19 10:04:26;;;;;;;15.18;2.17;;;5.60;99.90;;;;;;5053638;28;20060;-82
2023/01/19 10:07:54;;;;;;;15.65;2.28;;;5.70;99.90;;;;;;5035469;28;20053;-80
2023/01/19 10:10:44;;;;;;;13.38;1.83;;;5.70;99.90;;;;;;5021676;28;20053;-80
2023/01/19 10:13:42;;;;;;;15.80;2.42;;;5.80;99.90;;;;;;5052547;28;20497;-82
2023/01/19 10:16:50;;;;;;;12.45;2.97;;;5.90;99.90;;;;;;5053486;28;20056;-83
2023/01/19 10:19:43;;;;;;;18.60;2.95;;;6.00;99.90;;;;;;5051772;28;20509;-82
2023/01/19 10:22:29;;;;;;;16.13;1.73;;;6.20;99.90;;;;;;5053361;28;20098;-82
2023/01/19 10:25:20;;;;;;;8.55;2.25;;;6.30;99.90;;;;;;5036084;28;20049;-80
2023/01/19 10:28:10;;;;;;;11.57;1.63;;;6.50;99.90;;;;;;5054125;28;20362;-83
2023/01/19 10:30:56;;;;;;;14.63;1.70;;;6.50;99.90;;;;;;5056264;28;20428;-80
2023/01/19 10:33:42;;;;;;;7.45;1.15;;;6.50;99.90;;;;;;5042209;28;20145;-80
2023/01/19 10:36:34;;;;;;;10.80;1.80;;;6.50;99.90;;;;;;5055508;28;20045;-82
2023/01/19 10:39:20;;;;;;;11.95;2.25;;;6.70;99.90;;;;;;5057573;28;20053;-80
2023/01/19 10:42:14;;;;;;;10.15;2.10;;;6.90;99.90;;;;;;5061053;28;20398;-83
2023/01/19 10:45:00;;;;;;;11.50;2.40;;;7.00;99.90;;;;;;5058782;28;20109;-80
2023/01/19 10:47:47;;;;;;;8.18;1.70;;;7.00;99.90;;;;;;5052825;28;20336;-82
2023/01/19 10:50:38;;;;;;;10.82;1.55;;;7.20;99.90;;;;;;5054036;28;20515;-81
2023/01/19 10:53:24;;;;;;;10.32;2.28;;;7.40;99.90;;;;;;5038746;28;20118;-80
2023/01/19 10:56:19;;;;;;;10.32;1.23;;;7.30;99.90;;;;;;5053000;28;20067;-81
2023/01/19 10:59:06;;;;;;;15.25;3.00;;;7.20;99.90;;;;;;5024039;28;20142;-82
2023/01/19 11:02:22;;;;;;;8.98;1.75;;;7.50;99.90;;;;;;5050998;28;20049;-81
2023/01/19 11:05:23;;;;;;;12.18;2.83;;;7.80;99.90;;;;;;5046349;28;20049;-80
2023/01/19 11:08:36;;;;;;;13.15;2.03;;;8.10;99.90;;;;;;5051178;28;20490;-81
2023/01/19 11:11:23;;;;;;;10.73;1.60;;;8.20;99.90;;;;;;5052252;28;20060;-80
2023/01/19 11:14:16;;;;;;;9.13;1.60;;;7.80;99.90;;;;;;5024141;28;20048;-81
2023/01/19 11:17:02;;;;;;;10.63;3.30;;;7.30;99.90;;;;;;5051878;28;20052;-82
2023/01/19 11:20:01;;;;;;;16.20;1.60;;;7.30;99.90;;;;;;5050882;28;20045;-79
2023/01/19 11:22:47;;;;;;;12.90;1.73;;;8.00;99.90;;;;;;5033670;28;20110;-82
2023/01/19 11:25:35;;;;;;;6.90;1.20;;;8.30;99.90;;;;;;5052084;28;20126;-80
2023/01/19 11:28:44;;;;;;;10.55;1.70;;;8.60;99.90;;;;;;5050795;28;20052;-80
2023/01/19 11:31:35;;;;;;;16.50;2.85;;;8.70;99.90;;;;;;5051946;28;20049;-80
2023/01/19 11:34:25;;;;;;;12.55;1.98;;;8.40;99.90;;;;;;5050971;28;20080;-80
2023/01/19 11:37:17;;;;;;;11.45;1.92;;;8.10;99.90;;;;;;5050351;28;20092;-83
2023/01/19 11:40:07;;;;;;;16.77;2.03;;;8.20;99.90;;;;;;5033942;28;20049;-84
2023/01/19 11:42:54;;;;;;;6.63;1.50;;;8.60;99.90;;;;;;5050142;28;20059;-83
2023/01/19 11:45:41;;;;;;;9.73;1.25;;;8.90;99.90;;;;;;5051068;28;20041;-82
2023/01/19 11:48:35;;;;;;;12.15;2.42;;;9.10;99.90;;;;;;5051845;28;20049;-79
2023/01/19 11:51:24;;;;;;;7.50;1.93;;;9.50;99.90;;;;;;5053008;28;20140;-80
2023/01/19 11:54:22;;;;;;;12.38;1.60;;;10.00;99.90;;;;;;5051851;28;20111;-80
2023/01/19 11:57:19;;;;;;;14.23;2.25;;;10.40;99.90;;;;;;5050442;28;20619;-80
2023/01/19 12:00:23;;;;;;;10.55;1.60;;;10.50;99.90;;;;;;5050118;28;20049;-83
2023/01/19 12:03:16;;;;;;;9.85;1.67;;;10.60;99.90;;;;;;5049696;28;20087;-84
2023/01/19 12:06:10;;;;;;;6.07;0.88;;;11.00;99.90;;;;;;5050967;28;20041;-80
2023/01/19 12:09:13;;;;;;;5.22;1.20;;;11.70;99.30;;;;;;5051307;28;20501;-80
2023/01/19 12:12:11;;;;;;;14.90;3.85;;;12.60;99.70;;;;;;5050297;28;20106;-81
2023/01/19 12:15:03;;;;;;;11.35;1.85;;;13.00;98.60;;;;;;5034967;28;20049;-84
2023/01/19 12:17:58;;;;;;;10.77;2.63;;;12.00;98.50;;;;;;5032484;28;20448;-81
2023/01/19 12:20:49;;;;;;;14.50;1.73;;;10.00;99.70;;;;;;5056113;28;20112;-85
2023/01/19 12:23:50;;;;;;;13.73;2.38;;;9.20;99.90;;;;;;5035591;28;20049;-79
2023/01/19 12:26:41;;;;;;;9.35;1.75;;;9.50;99.90;;;;;;5032362;28;20049;-78
2023/01/19 12:29:31;;;;;;;12.90;1.92;;;9.20;99.90;;;;;;5049449;28;20045;-79
2023/01/19 12:32:19;;;;;;;11.57;1.60;;;8.70;99.90;;;;;;5031924;28;20072;-79
2023/01/19 12:35:25;;;;;;;13.48;1.92;;;8.40;99.90;;;;;;5050725;28;20493;-78
2023/01/19 12:38:40;;;;;;;11.00;2.50;;;8.20;99.90;;;;;;5033170;28;20053;-78
2023/01/19 12:41:32;;;;;;;8.98;1.05;;;8.50;99.90;;;;;;5050098;28;20049;-78
2023/01/19 12:44:22;;;;;;;9.05;1.90;;;9.20;99.90;;;;;;5051950;28;20087;-79
2023/01/19 12:47:14;;;;;;;10.15;1.40;;;10.10;99.90;;;;;;5051746;28;20500;-79
2023/01/19 12:50:05;;;;;;;7.40;1.02;;;10.30;99.90;;;;;;5050306;28;20076;-78
2023/01/19 12:53:00;;;;;;;11.98;1.55;;;10.80;99.90;;;;;;5051307;28;20049;-83
2023/01/19 12:56:04;;;;;;;12.18;2.00;;;11.60;99.90;;;;;;5052381;28;20511;-79
2023/01/19 12:58:51;;;;;;;10.13;2.85;;;11.00;99.90;;;;;;5054418;28;20056;-81
2023/01/19 13:01:37;;;;;;;12.32;1.90;;;10.20;99.90;;;;;;5052996;28;20199;-82
2023/01/19 13:04:31;;;;;;;6.82;1.20;;;9.40;99.90;;;;;;5052922;28;20059;-80
2023/01/19 13:07:19;;;;;;;10.95;1.85;;;8.80;99.90;;;;;;5053831;28;20453;-82
2023/01/19 13:10:42;;;;;;;9.05;1.35;;;8.20;99.90;;;;;;5053084;28;20053;-83
2023/01/19 13:13:39;;;;;;;8.25;1.63;;;7.70;99.90;;;;;;5042653;28;20057;-80
2023/01/19 13:16:26;;;;;;;12.57;1.27;;;7.40;99.90;;;;;;5055290;28;20118;-79
2023/01/19 13:19:20;;;;;;;4.07;0.73;;;7.00;99.90;;;;;;5052493;28;20092;-80
2023/01/19 13:22:45;;;;;;;6.47;0.80;;;7.60;99.90;;;;;;5053089;28;20045;-83
2023/01/19 13:25:34;;;;;;;6.50;1.13;;;8.60;99.90;;;;;;5054017;28;20099;-79
2023/01/19 13:28:29;;;;;;;10.27;1.33;;;9.30;99.90;;;;;;5052442;28;20053;-80
2023/01/19 13:31:17;;;;;;;4.20;0.90;;;9.40;99.90;;;;;;5035284;28;20136;-79
2023/01/19 13:34:10;;;;;;;12.57;2.45;;;9.30;99.90;;;;;;5053963;28;20049;-79
2023/01/19 13:37:00;;;;;;;6.03;0.85;;;9.10;99.90;;;;;;5058409;28;20051;-80
2023/01/19 13:39:50;;;;;;;6.13;1.10;;;8.50;99.90;;;;;;5053282;28;20045;-79
2023/01/19 13:42:39;;;;;;;3.10;0.57;;;7.50;99.90;;;;;;5053798;28;20356;-79
2023/01/19 13:45:35;;;;;;;4.40;0.60;;;6.80;99.90;;;;;;5053552;28;20052;-79
2023/01/19 13:48:23;;;;;;;4.50;0.45;;;6.40;99.90;;;;;;5034920;28;20122;-80
2023/01/19 13:51:17;;;;;;;11.85;1.65;;;6.30;99.90;;;;;;5037661;28;20045;-80
2023/01/19 13:54:05;;;;;;;10.40;1.40;;;6.70;99.90;;;;;;5034879;28;20037;-80
2023/01/19 13:56:51;;;;;;;5.97;1.67;;;7.50;99.90;;;;;;5052128;28;20070;-78
2023/01/19 13:59:37;;;;;;;9.63;1.75;;;8.20;99.90;;;;;;5056167;28;20136;-80
2023/01/19 14:02:23;;;;;;;11.73;1.83;;;8.60;99.90;;;;;;5051716;28;20057;-81
2023/01/19 14:05:24;;;;;;;6.07;1.17;;;8.70;99.90;;;;;;5051870;28;20048;-80
2023/01/19 14:08:10;;;;;;;11.27;1.20;;;8.80;99.90;;;;;;5051161;28;20048;-79
2023/01/19 14:10:58;;;;;;;12.32;2.60;;;9.00;99.90;;;;;;5051310;28;20049;-80
2023/01/19 14:13:45;;;;;;;9.73;1.45;;;9.00;99.90;;;;;;5052092;28;20103;-80
2023/01/19 14:16:31;;;;;;;6.25;1.02;;;8.80;99.90;;;;;;5036852;28;20055;-83
2023/01/19 14:19:17;;;;;;;8.43;1.20;;;8.40;99.90;;;;;;5052798;28;20044;-79
2023/01/19 14:22:04;;;;;;;7.90;1.85;;;7.90;99.90;;;;;;5034475;28;20049;-79
2023/01/19 14:24:50;;;;;;;6.43;1.50;;;7.50;99.90;;;;;;5052033;28;20053;-81
2023/01/19 14:27:36;;;;;;;4.57;0.80;;;7.20;99.90;;;;;;5008104;28;20044;-78
2023/01/19 14:30:25;;;;;;;8.70;1.20;;;7.00;99.90;;;;;;5058005;28;20116;-85
2023/01/19 14:33:44;;;;;;;8.27;1.30;;;6.60;99.90;;;;;;5050693;28;20144;-79
2023/01/19 14:36:40;;;;;;;4.35;1.23;;;6.20;99.90;;;;;;5051390;28;20080;-80
2023/01/19 14:39:31;;;;;;;16.10;2.58;;;5.90;99.90;;;;;;5051655;28;20387;-80
2023/01/19 14:42:22;;;;;;;10.68;1.30;;;5.80;99.90;;;;;;5051834;28;20056;-80
2023/01/19 14:45:31;;;;;;;7.70;0.85;;;5.60;99.90;;;;;;5036269;28;20063;-82
2023/01/19 14:48:20;;;;;;;9.57;1.02;;;5.50;99.90;;;;;;5051729;28;20576;-80
2023/01/19 14:51:07;;;;;;;8.57;0.73;;;5.40;99.90;;;;;;5038254;28;20060;-80
2023/01/19 14:53:56;;;;;;;6.13;1.65;;;5.80;99.90;;;;;;5050722;28;20049;-78